Time;durP1;ratioP1;P1;durP2;ratioP2;P2;SDS_P1;SDS_P2;PMS_P1;PMS_P2;Temp;Humidity;BMP_temperature;BMP_pressure;BME280_temperature;BME280_humidity;BME280_pressure;Samples;Min_cycle;Max_cycle;Signal;HPM_P1;HPM_P2
2023/09/21 00:00:57;;;;;;;9.50;5.70;;;;;;;;;;2074616;28;20029;-54
2023/09/21 00:01:58;;;;;;;8.32;5.78;;;;;;;;;;2074467;28;20052;-54
2023/09/21 00:02:59;;;;;;;9.07;5.82;;;;;;;;;;2074663;28;20033;-53
2023/09/21 00:04:01;;;;;;;9.68;5.03;;;;;;;;;;2074504;28;20394;-53
2023/09/21 00:05:01;;;;;;;10.32;5.28;;;;;;;;;;2074228;28;20050;-53
2023/09/21 00:06:05;;;;;;;7.30;4.50;;;;;;;;;;2074507;28;20037;-53
2023/09/21 00:07:06;;;;;;;8.40;5.00;;;;;;;;;;2074436;28;20431;-53
2023/09/21 00:08:07;;;;;;;9.30;4.68;;;;;;;;;;2074417;28;20041;-54
2023/09/21 00:09:08;;;;;;;7.82;4.57;;;;;;;;;;2074297;28;20046;-54
2023/09/21 00:10:09;;;;;;;5.55;4.80;;;;;;;;;;2074495;28;20382;-53
2023/09/21 00:11:10;;;;;;;8.77;4.90;;;;;;;;;;2074186;28;20049;-54
2023/09/21 00:12:11;;;;;;;9.15;5.25;;;;;;;;;;2074517;28;20034;-54
2023/09/21 00:13:12;;;;;;;7.05;5.40;;;;;;;;;;2074687;28;20034;-53
2023/09/21 00:14:13;;;;;;;8.20;5.63;;;;;;;;;;2073978;28;20042;-53
2023/09/21 00:15:16;;;;;;;7.88;5.38;;;;;;;;;;2074687;28;20030;-53
2023/09/21 00:16:18;;;;;;;8.18;5.70;;;;;;;;;;2074282;28;20044;-53
2023/09/21 00:17:19;;;;;;;8.35;5.75;;;;;;;;;;2074265;28;20057;-53
2023/09/21 00:18:23;;;;;;;11.32;6.47;;;;;;;;;;2074059;28;20050;-53
2023/09/21 00:19:24;;;;;;;9.98;5.88;;;;;;;;;;2074270;28;20041;-53
2023/09/21 00:20:28;;;;;;;8.25;5.57;;;;;;;;;;2074000;28;20046;-53
2023/09/21 00:21:31;;;;;;;8.95;5.63;;;;;;;;;;2073668;28;20116;-53
2023/09/21 00:22:32;;;;;;;7.82;5.93;;;;;;;;;;2073134;28;20046;-53
2023/09/21 00:23:33;;;;;;;8.02;5.43;;;;;;;;;;2073271;28;20049;-53
2023/09/21 00:24:34;;;;;;;7.63;5.47;;;;;;;;;;2073951;28;20038;-53
2023/09/21 00:25:36;;;;;;;9.82;5.47;;;;;;;;;;2074102;28;20057;-53
2023/09/21 00:26:37;;;;;;;9.30;5.90;;;;;;;;;;2073648;28;20120;-53
2023/09/21 00:27:39;;;;;;;8.35;5.05;;;;;;;;;;2074563;28;20140;-54
2023/09/21 00:28:40;;;;;;;6.75;5.13;;;;;;;;;;2072959;28;20053;-53
2023/09/21 00:29:41;;;;;;;10.60;5.38;;;;;;;;;;2072746;28;20041;-53
2023/09/21 00:30:42;;;;;;;9.25;5.57;;;;;;;;;;2074268;28;20398;-53
2023/09/21 00:31:43;;;;;;;8.20;5.65;;;;;;;;;;2074187;28;20033;-53
2023/09/21 00:32:44;;;;;;;7.28;5.55;;;;;;;;;;2074286;28;20032;-53
2023/09/21 00:33:45;;;;;;;7.55;5.38;;;;;;;;;;2074220;28;20056;-54
2023/09/21 00:34:49;;;;;;;7.53;5.80;;;;;;;;;;2073943;28;20034;-53
2023/09/21 00:35:50;;;;;;;6.35;5.53;;;;;;;;;;2073125;28;20510;-53
2023/09/21 00:36:51;;;;;;;8.25;5.80;;;;;;;;;;2074310;28;20046;-54
2023/09/21 00:37:52;;;;;;;7.93;5.68;;;;;;;;;;2074231;28;20041;-53
2023/09/21 00:38:54;;;;;;;10.30;5.50;;;;;;;;;;2073106;28;20085;-53
2023/09/21 00:39:55;;;;;;;8.90;5.95;;;;;;;;;;2073412;28;20046;-53
2023/09/21 00:40:56;;;;;;;8.30;5.20;;;;;;;;;;2074115;28;20037;-54
2023/09/21 00:41:57;;;;;;;8.70;5.18;;;;;;;;;;2072861;28;20046;-54
2023/09/21 00:43:01;;;;;;;9.43;5.90;;;;;;;;;;2073753;28;20038;-54
2023/09/21 00:44:08;;;;;;;7.82;4.90;;;;;;;;;;2074242;28;20037;-54
2023/09/21 00:45:09;;;;;;;6.65;4.70;;;;;;;;;;2073012;28;20520;-54
2023/09/21 00:46:09;;;;;;;7.60;4.93;;;;;;;;;;2073743;28;20045;-54
2023/09/21 00:47:13;;;;;;;8.63;5.18;;;;;;;;;;2073028;28;20452;-53
2023/09/21 00:48:14;;;;;;;9.27;5.18;;;;;;;;;;2065061;28;20042;-53
2023/09/21 00:49:17;;;;;;;9.60;5.45;;;;;;;;;;2065091;28;20520;-53
2023/09/21 00:50:21;;;;;;;9.18;5.13;;;;;;;;;;2065761;28;20069;-53
2023/09/21 00:51:22;;;;;;;9.57;5.43;;;;;;;;;;2074011;28;20053;-53
2023/09/21 00:52:23;;;;;;;6.70;4.88;;;;;;;;;;2073970;28;20041;-53
2023/09/21 00:53:27;;;;;;;9.57;5.28;;;;;;;;;;2074085;28;20053;-53
2023/09/21 00:54:27;;;;;;;8.23;5.18;;;;;;;;;;2074118;28;20041;-53
2023/09/21 00:55:30;;;;;;;6.72;5.15;;;;;;;;;;2073699;28;20401;-53
2023/09/21 00:56:31;;;;;;;6.15;5.35;;;;;;;;;;2057209;28;20430;-54
2023/09/21 00:57:32;;;;;;;7.20;5.10;;;;;;;;;;2065193;28;20069;-53
2023/09/21 00:58:33;;;;;;;9.77;5.38;;;;;;;;;;2057461;28;20428;-53
2023/09/21 00:59:36;;;;;;;11.85;5.40;;;;;;;;;;2057223;28;20039;-53
2023/09/21 01:00:37;;;;;;;7.43;5.22;;;;;;;;;;2056906;28;20054;-53
2023/09/21 01:01:38;;;;;;;8.88;5.13;;;;;;;;;;2065547;28;20092;-54
2023/09/21 01:02:42;;;;;;;6.45;5.38;;;;;;;;;;2074062;28;20414;-53
2023/09/21 01:03:43;;;;;;;8.15;6.15;;;;;;;;;;2073915;28;20045;-53
2023/09/21 01:04:43;;;;;;;8.73;5.40;;;;;;;;;;2073986;28;20471;-54
2023/09/21 01:05:45;;;;;;;9.10;6.00;;;;;;;;;;2073316;28;20041;-53
2023/09/21 01:06:48;;;;;;;8.70;4.93;;;;;;;;;;2073428;28;20095;-54
2023/09/21 01:07:50;;;;;;;7.03;5.30;;;;;;;;;;2073169;28;20092;-54
2023/09/21 01:08:50;;;;;;;8.90;4.97;;;;;;;;;;2073195;28;20045;-54
2023/09/21 01:09:52;;;;;;;10.35;5.53;;;;;;;;;;2073630;28;20096;-54
2023/09/21 01:10:54;;;;;;;9.07;5.47;;;;;;;;;;2072957;28;20040;-54
2023/09/21 01:11:56;;;;;;;6.55;5.05;;;;;;;;;;2064696;28;20042;-53
2023/09/21 01:12:57;;;;;;;8.70;5.38;;;;;;;;;;2072902;28;20042;-53
2023/09/21 01:13:58;;;;;;;8.88;6.22;;;;;;;;;;2073254;28;20061;-53
2023/09/21 01:15:05;;;;;;;9.52;5.90;;;;;;;;;;2064647;28;20498;-53
2023/09/21 01:16:06;;;;;;;9.85;5.95;;;;;;;;;;2066050;28;20035;-53
2023/09/21 01:17:07;;;;;;;8.90;5.70;;;;;;;;;;2072616;28;20070;-53
2023/09/21 01:18:07;;;;;;;8.05;6.03;;;;;;;;;;2073921;28;20046;-54
2023/09/21 01:19:09;;;;;;;8.95;6.03;;;;;;;;;;2073250;28;20057;-53
2023/09/21 01:20:23;;;;;;;8.60;5.78;;;;;;;;;;2072614;28;20057;-53
2023/09/21 01:21:42;;;;;;;9.35;5.97;;;;;;;;;;2073324;28;20040;-53
2023/09/21 01:22:44;;;;;;;7.13;5.80;;;;;;;;;;2059772;28;20086;-53
2023/09/21 01:23:46;;;;;;;10.68;6.65;;;;;;;;;;2065060;28;20049;-53
2023/09/21 01:24:47;;;;;;;7.40;5.72;;;;;;;;;;2073554;28;20045;-53
2023/09/21 01:25:51;;;;;;;11.02;6.78;;;;;;;;;;2072985;28;20521;-53
2023/09/21 01:26:51;;;;;;;12.27;6.40;;;;;;;;;;2072842;28;20034;-53
2023/09/21 01:27:53;;;;;;;9.02;5.55;;;;;;;;;;2072730;28;20041;-53
2023/09/21 01:28:56;;;;;;;9.35;5.45;;;;;;;;;;2072850;28;20141;-53
2023/09/21 01:29:57;;;;;;;9.10;6.10;;;;;;;;;;2073929;28;20382;-53
2023/09/21 01:30:58;;;;;;;12.23;6.00;;;;;;;;;;2073937;28;20037;-53
2023/09/21 01:31:59;;;;;;;8.63;6.25;;;;;;;;;;2074155;28;20473;-53
2023/09/21 01:33:04;;;;;;;10.32;6.15;;;;;;;;;;2074156;28;20068;-54
2023/09/21 01:34:05;;;;;;;7.90;6.10;;;;;;;;;;2073192;28;20033;-53
2023/09/21 01:35:08;;;;;;;7.97;6.40;;;;;;;;;;2073477;28;20030;-53
2023/09/21 01:36:12;;;;;;;9.18;6.93;;;;;;;;;;2073265;28;20057;-53
2023/09/21 01:37:14;;;;;;;11.13;7.28;;;;;;;;;;2072345;28;20046;-53
2023/09/21 01:38:15;;;;;;;11.80;7.80;;;;;;;;;;2072383;28;20057;-53
2023/09/21 01:39:16;;;;;;;10.40;7.35;;;;;;;;;;2072765;28;20056;-53
2023/09/21 01:40:17;;;;;;;12.02;7.28;;;;;;;;;;2072908;28;20065;-53
2023/09/21 01:41:18;;;;;;;10.95;7.78;;;;;;;;;;2073546;28;20478;-53
2023/09/21 01:42:19;;;;;;;11.68;8.15;;;;;;;;;;2073773;28;20038;-54
2023/09/21 01:43:20;;;;;;;11.65;8.25;;;;;;;;;;2073992;28;20050;-53
2023/09/21 01:44:21;;;;;;;10.05;7.90;;;;;;;;;;2072948;28;20141;-53
2023/09/21 01:45:22;;;;;;;11.57;8.00;;;;;;;;;;2073916;28;20489;-53
2023/09/21 01:46:24;;;;;;;10.77;8.07;;;;;;;;;;2073676;28;20036;-53
2023/09/21 01:47:25;;;;;;;10.25;8.20;;;;;;;;;;2073922;28;20042;-53
2023/09/21 01:48:27;;;;;;;10.13;8.10;;;;;;;;;;2073725;28;20050;-53
2023/09/21 01:49:28;;;;;;;8.60;7.70;;;;;;;;;;2073061;28;20030;-54
2023/09/21 01:50:28;;;;;;;14.27;7.88;;;;;;;;;;2073239;28;20121;-53
2023/09/21 01:51:29;;;;;;;11.77;8.02;;;;;;;;;;2073771;28;20136;-54
2023/09/21 01:52:30;;;;;;;10.50;8.45;;;;;;;;;;2073723;28;20061;-53
2023/09/21 01:53:32;;;;;;;9.50;8.15;;;;;;;;;;2073056;28;20576;-53
2023/09/21 01:54:33;;;;;;;12.05;8.15;;;;;;;;;;2073093;28;20038;-54
2023/09/21 01:55:33;;;;;;;10.57;8.23;;;;;;;;;;2073685;28;20489;-53
2023/09/21 01:56:34;;;;;;;11.70;8.82;;;;;;;;;;2072563;28;20141;-53
2023/09/21 01:57:36;;;;;;;8.77;7.82;;;;;;;;;;2064340;28;20478;-53
2023/09/21 01:58:37;;;;;;;9.43;8.02;;;;;;;;;;2064784;28;20058;-53
2023/09/21 01:59:37;;;;;;;13.10;9.32;;;;;;;;;;2073167;28;20085;-53
2023/09/21 02:00:39;;;;;;;10.43;8.52;;;;;;;;;;2073056;28;20057;-54
2023/09/21 02:01:42;;;;;;;13.23;9.38;;;;;;;;;;2073791;28;20033;-53
2023/09/21 02:02:42;;;;;;;10.25;8.73;;;;;;;;;;2073383;28;20390;-53
2023/09/21 02:03:44;;;;;;;9.80;8.07;;;;;;;;;;2073744;28;20042;-53
2023/09/21 02:04:44;;;;;;;9.77;7.97;;;;;;;;;;2073739;28;20041;-53
2023/09/21 02:05:48;;;;;;;9.15;7.47;;;;;;;;;;2073621;28;20386;-53
2023/09/21 02:06:49;;;;;;;11.80;7.70;;;;;;;;;;2072803;28;20046;-53
2023/09/21 02:07:50;;;;;;;9.98;8.35;;;;;;;;;;2072929;28;20529;-53
2023/09/21 02:08:52;;;;;;;11.02;8.38;;;;;;;;;;2072717;28;20065;-54
2023/09/21 02:09:53;;;;;;;10.43;8.82;;;;;;;;;;2073168;28;20053;-53
2023/09/21 02:10:54;;;;;;;10.55;8.38;;;;;;;;;;2073874;28;20034;-53
2023/09/21 02:11:55;;;;;;;11.18;8.95;;;;;;;;;;2073602;28;20042;-53
2023/09/21 02:13:00;;;;;;;10.50;8.73;;;;;;;;;;2073422;28;20133;-53
2023/09/21 02:14:00;;;;;;;9.57;8.57;;;;;;;;;;2073121;28;20042;-53
2023/09/21 02:15:02;;;;;;;10.85;8.90;;;;;;;;;;2064252;28;20053;-54
2023/09/21 02:16:04;;;;;;;10.88;9.25;;;;;;;;;;2073015;28;20040;-53
2023/09/21 02:17:05;;;;;;;11.50;9.35;;;;;;;;;;2072576;28;20076;-54
2023/09/21 02:18:06;;;;;;;12.32;9.38;;;;;;;;;;2073391;28;20045;-53
2023/09/21 02:19:07;;;;;;;12.70;10.10;;;;;;;;;;2072880;28;20045;-53
2023/09/21 02:20:13;;;;;;;11.88;9.63;;;;;;;;;;2072506;28;20057;-53
2023/09/21 02:21:17;;;;;;;11.73;9.93;;;;;;;;;;2072815;28;20042;-53
2023/09/21 02:22:19;;;;;;;12.48;9.18;;;;;;;;;;2073198;28;20486;-53
2023/09/21 02:23:20;;;;;;;11.65;9.00;;;;;;;;;;2073599;28;20482;-53
2023/09/21 02:24:21;;;;;;;11.65;9.35;;;;;;;;;;2073782;28;20065;-53
2023/09/21 02:25:24;;;;;;;12.98;9.20;;;;;;;;;;2072402;28;20398;-54
2023/09/21 02:26:26;;;;;;;11.48;9.38;;;;;;;;;;2065016;28;20422;-53
2023/09/21 02:27:27;;;;;;;13.93;9.25;;;;;;;;;;2072506;28;20486;-53
2023/09/21 02:28:28;;;;;;;12.60;8.38;;;;;;;;;;2073745;28;20034;-53
2023/09/21 02:29:28;;;;;;;13.88;9.30;;;;;;;;;;2073419;28;20494;-53
2023/09/21 02:30:31;;;;;;;10.88;8.82;;;;;;;;;;2073742;28;20038;-53
2023/09/21 02:31:33;;;;;;;12.45;10.85;;;;;;;;;;2072512;28;20529;-53
2023/09/21 02:32:34;;;;;;;12.20;10.18;;;;;;;;;;2073132;28;20033;-53
2023/09/21 02:33:35;;;;;;;12.80;10.30;;;;;;;;;;2073009;28;20049;-53
2023/09/21 02:34:37;;;;;;;12.63;9.85;;;;;;;;;;2073288;28;20038;-53
2023/09/21 02:35:41;;;;;;;13.25;9.68;;;;;;;;;;2073649;28;20045;-53
2023/09/21 02:36:42;;;;;;;13.88;9.80;;;;;;;;;;2073588;28;20493;-53
2023/09/21 02:37:44;;;;;;;13.27;10.25;;;;;;;;;;2073667;28;20037;-54
2023/09/21 02:38:48;;;;;;;11.57;9.20;;;;;;;;;;2072946;28;20433;-53
2023/09/21 02:39:49;;;;;;;14.07;9.45;;;;;;;;;;2064866;28;20046;-54
2023/09/21 02:40:49;;;;;;;13.10;9.45;;;;;;;;;;2065231;28;20046;-53
2023/09/21 02:41:50;;;;;;;12.27;9.52;;;;;;;;;;2064356;28;20145;-53
2023/09/21 02:42:52;;;;;;;15.40;9.40;;;;;;;;;;2072409;28;20046;-53
2023/09/21 02:43:53;;;;;;;11.82;9.32;;;;;;;;;;2072128;28;20061;-53
2023/09/21 02:44:55;;;;;;;15.57;10.80;;;;;;;;;;2064261;28;20073;-53
2023/09/21 02:45:56;;;;;;;12.20;10.38;;;;;;;;;;2072898;28;20040;-54
2023/09/21 02:46:57;;;;;;;19.48;11.00;;;;;;;;;;2072806;28;20038;-53
2023/09/21 02:48:00;;;;;;;14.20;10.18;;;;;;;;;;2081415;28;20033;-53
2023/09/21 02:49:01;;;;;;;11.65;10.23;;;;;;;;;;2072975;28;20040;-54
2023/09/21 02:50:09;;;;;;;14.98;10.07;;;;;;;;;;2065238;28;20049;-53
2023/09/21 02:51:10;;;;;;;12.68;9.90;;;;;;;;;;2067344;28;20042;-54
2023/09/21 02:52:12;;;;;;;12.30;9.93;;;;;;;;;;2073769;28;20050;-53
2023/09/21 02:53:13;;;;;;;11.73;10.43;;;;;;;;;;2074173;28;20038;-53
2023/09/21 02:54:15;;;;;;;14.20;9.75;;;;;;;;;;2066011;28;20054;-53
2023/09/21 02:55:16;;;;;;;12.95;10.23;;;;;;;;;;2065977;28;20482;-53
2023/09/21 02:56:20;;;;;;;12.48;10.07;;;;;;;;;;2066539;28;20455;-53
2023/09/21 02:57:22;;;;;;;12.55;9.57;;;;;;;;;;2066527;28;20049;-53
2023/09/21 02:58:22;;;;;;;13.82;9.05;;;;;;;;;;2066445;28;20061;-53
2023/09/21 02:59:26;;;;;;;12.00;9.25;;;;;;;;;;2066330;28;20046;-54
2023/09/21 03:00:29;;;;;;;12.48;8.55;;;;;;;;;;2065790;28;20054;-53
2023/09/21 03:01:30;;;;;;;13.30;8.73;;;;;;;;;;2066433;28;20046;-53
2023/09/21 03:02:32;;;;;;;12.15;8.93;;;;;;;;;;2066276;28;20057;-53
2023/09/21 03:03:33;;;;;;;12.30;8.23;;;;;;;;;;2066331;28;20050;-53
2023/09/21 03:04:34;;;;;;;10.35;8.98;;;;;;;;;;2073965;28;20050;-53
2023/09/21 03:05:36;;;;;;;14.52;8.93;;;;;;;;;;2074150;28;20437;-53
2023/09/21 03:06:37;;;;;;;14.23;9.18;;;;;;;;;;2074279;28;20402;-53
2023/09/21 03:07:43;;;;;;;12.73;9.38;;;;;;;;;;2074313;28;20037;-54
2023/09/21 03:08:49;;;;;;;11.75;9.70;;;;;;;;;;2066464;28;20089;-53
2023/09/21 03:09:49;;;;;;;9.98;8.90;;;;;;;;;;2066691;28;20045;-53
2023/09/21 03:10:52;;;;;;;12.25;9.55;;;;;;;;;;2066152;28;20421;-53
2023/09/21 03:11:52;;;;;;;13.57;9.07;;;;;;;;;;2073586;28;20104;-54
2023/09/21 03:12:53;;;;;;;12.15;8.85;;;;;;;;;;2074803;28;20049;-53
2023/09/21 03:13:56;;;;;;;11.57;8.77;;;;;;;;;;2074828;28;20041;-53
2023/09/21 03:14:57;;;;;;;12.52;9.45;;;;;;;;;;2074189;28;20417;-53
2023/09/21 03:15:58;;;;;;;10.15;8.40;;;;;;;;;;2073613;28;20525;-53
2023/09/21 03:16:58;;;;;;;11.93;8.57;;;;;;;;;;2074189;28;20026;-53
2023/09/21 03:18:00;;;;;;;16.75;8.60;;;;;;;;;;2074047;28;20468;-53
2023/09/21 03:19:02;;;;;;;13.38;8.88;;;;;;;;;;2066011;28;20049;-53
2023/09/21 03:20:09;;;;;;;9.93;8.05;;;;;;;;;;2074288;28;20044;-53
2023/09/21 03:21:11;;;;;;;11.13;8.55;;;;;;;;;;2074043;28;20124;-53
2023/09/21 03:22:13;;;;;;;10.70;8.60;;;;;;;;;;2074179;28;20034;-53
2023/09/21 03:23:15;;;;;;;10.98;8.32;;;;;;;;;;2074829;28;20038;-54
2023/09/21 03:24:17;;;;;;;12.45;7.88;;;;;;;;;;2074091;28;20051;-53
2023/09/21 03:25:25;;;;;;;11.05;7.90;;;;;;;;;;2073427;28;20049;-53
2023/09/21 03:26:26;;;;;;;12.02;8.10;;;;;;;;;;2073950;28;20042;-54
2023/09/21 03:27:27;;;;;;;11.40;8.13;;;;;;;;;;2074103;28;20033;-53
2023/09/21 03:28:28;;;;;;;9.32;8.25;;;;;;;;;;2073553;28;20528;-53
2023/09/21 03:29:29;;;;;;;10.77;8.25;;;;;;;;;;2073583;28;20041;-53
2023/09/21 03:30:31;;;;;;;11.48;8.38;;;;;;;;;;2073896;28;20054;-53
2023/09/21 03:31:32;;;;;;;11.38;8.80;;;;;;;;;;2065423;28;20038;-53
2023/09/21 03:32:33;;;;;;;9.55;8.52;;;;;;;;;;2074251;28;20038;-53
2023/09/21 03:33:34;;;;;;;10.30;8.07;;;;;;;;;;2074653;28;20046;-53
2023/09/21 03:34:36;;;;;;;9.40;7.55;;;;;;;;;;2073992;28;20401;-54
2023/09/21 03:35:40;;;;;;;12.02;8.35;;;;;;;;;;2074384;28;20036;-53
2023/09/21 03:36:41;;;;;;;11.05;8.57;;;;;;;;;;2073816;28;20548;-54
2023/09/21 03:37:43;;;;;;;12.18;9.75;;;;;;;;;;2074282;28;20042;-54
2023/09/21 03:38:44;;;;;;;10.18;8.98;;;;;;;;;;2074128;28;20037;-53
2023/09/21 03:39:45;;;;;;;13.68;9.25;;;;;;;;;;2074159;28;20493;-53
2023/09/21 03:40:47;;;;;;;12.13;9.23;;;;;;;;;;2074584;28;20046;-53
2023/09/21 03:41:48;;;;;;;13.75;9.43;;;;;;;;;;2074604;28;20045;-53
2023/09/21 03:42:49;;;;;;;12.75;8.88;;;;;;;;;;2073977;28;20038;-53
2023/09/21 03:43:50;;;;;;;10.43;8.90;;;;;;;;;;2074249;28;20491;-53
2023/09/21 03:44:50;;;;;;;13.90;8.75;;;;;;;;;;2073687;28;20426;-53
2023/09/21 03:45:51;;;;;;;10.77;9.23;;;;;;;;;;2074160;28;20069;-53
2023/09/21 03:46:52;;;;;;;11.68;9.23;;;;;;;;;;2074382;28;20045;-53
2023/09/21 03:47:55;;;;;;;11.88;8.95;;;;;;;;;;2074079;28;20042;-53
2023/09/21 03:48:56;;;;;;;14.68;10.07;;;;;;;;;;2065867;28;20482;-54
2023/09/21 03:49:58;;;;;;;11.20;9.35;;;;;;;;;;2065922;28;20035;-53
2023/09/21 03:51:04;;;;;;;11.95;9.23;;;;;;;;;;2073431;28;20417;-53
2023/09/21 03:52:05;;;;;;;10.30;9.20;;;;;;;;;;2066581;28;20038;-53
2023/09/21 03:53:08;;;;;;;9.25;8.25;;;;;;;;;;2073348;28;20125;-53
2023/09/21 03:54:09;;;;;;;11.57;9.32;;;;;;;;;;2073845;28;20037;-53
2023/09/21 03:55:15;;;;;;;14.20;9.05;;;;;;;;;;2066158;28;20485;-53
2023/09/21 03:56:16;;;;;;;11.57;9.00;;;;;;;;;;2073778;28;20046;-53
2023/09/21 03:57:17;;;;;;;11.65;8.82;;;;;;;;;;2073845;28;20073;-54
2023/09/21 03:58:19;;;;;;;13.05;9.13;;;;;;;;;;2073590;28;20046;-53
2023/09/21 03:59:20;;;;;;;10.88;9.05;;;;;;;;;;2073505;28;20054;-53
2023/09/21 04:00:29;;;;;;;14.80;9.23;;;;;;;;;;2073480;28;20053;-53
2023/09/21 04:01:31;;;;;;;14.57;9.85;;;;;;;;;;2073357;28;20450;-53
2023/09/21 04:02:31;;;;;;;14.25;9.68;;;;;;;;;;2072852;28;20060;-53
2023/09/21 04:03:32;;;;;;;12.25;10.02;;;;;;;;;;2072990;28;20042;-53
2023/09/21 04:04:36;;;;;;;13.27;9.65;;;;;;;;;;2066159;28;20410;-53
2023/09/21 04:05:37;;;;;;;12.13;9.60;;;;;;;;;;2065649;28;20038;-54
2023/09/21 04:06:38;;;;;;;12.38;9.52;;;;;;;;;;2065801;28;20042;-53
2023/09/21 04:07:39;;;;;;;18.27;10.27;;;;;;;;;;2073293;28;20125;-53
2023/09/21 04:08:39;;;;;;;12.82;9.43;;;;;;;;;;2073779;28;20521;-54
2023/09/21 04:09:40;;;;;;;13.95;11.07;;;;;;;;;;2065820;28;20038;-54
2023/09/21 04:10:41;;;;;;;14.40;9.85;;;;;;;;;;2073159;28;20061;-54
2023/09/21 04:11:42;;;;;;;11.88;9.68;;;;;;;;;;2074362;28;20046;-53
2023/09/21 04:12:43;;;;;;;13.48;10.40;;;;;;;;;;2074398;28;20046;-53
2023/09/21 04:13:43;;;;;;;12.50;10.48;;;;;;;;;;2074385;28;20045;-53
2023/09/21 04:14:45;;;;;;;15.48;10.85;;;;;;;;;;2073748;28;20087;-53
2023/09/21 04:15:46;;;;;;;16.02;10.05;;;;;;;;;;2065472;28;20046;-53
2023/09/21 04:16:47;;;;;;;15.85;11.00;;;;;;;;;;2073932;28;20033;-53
2023/09/21 04:17:49;;;;;;;14.25;10.50;;;;;;;;;;2074048;28;20053;-53
2023/09/21 04:18:50;;;;;;;14.25;10.90;;;;;;;;;;2073846;28;20042;-53
2023/09/21 04:19:51;;;;;;;14.02;10.57;;;;;;;;;;2073889;28;20038;-54
2023/09/21 04:20:52;;;;;;;13.40;10.15;;;;;;;;;;2073251;28;20105;-53
2023/09/21 04:21:53;;;;;;;14.43;11.27;;;;;;;;;;2065908;28;20144;-53
2023/09/21 04:22:55;;;;;;;16.48;10.52;;;;;;;;;;2073476;28;20065;-53
2023/09/21 04:23:55;;;;;;;15.75;10.48;;;;;;;;;;2065553;28;20042;-53
2023/09/21 04:25:00;;;;;;;15.60;11.77;;;;;;;;;;2065687;28;20507;-54
2023/09/21 04:26:01;;;;;;;15.13;9.88;;;;;;;;;;2074034;28;20033;-53
2023/09/21 04:27:03;;;;;;;17.00;11.77;;;;;;;;;;2073670;28;20124;-53
2023/09/21 04:28:05;;;;;;;13.95;10.63;;;;;;;;;;2065566;28;20051;-53
2023/09/21 04:29:07;;;;;;;14.30;10.82;;;;;;;;;;2065496;28;20450;-53
2023/09/21 04:30:09;;;;;;;13.35;10.15;;;;;;;;;;2073139;28;20054;-54
2023/09/21 04:31:10;;;;;;;14.80;10.60;;;;;;;;;;2065601;28;20523;-53
2023/09/21 04:32:10;;;;;;;13.25;10.68;;;;;;;;;;2065527;28;20078;-53
2023/09/21 04:33:11;;;;;;;15.00;10.45;;;;;;;;;;2072803;28;20049;-54
2023/09/21 04:34:12;;;;;;;13.65;10.25;;;;;;;;;;2073645;28;20084;-53
2023/09/21 04:35:13;;;;;;;13.38;10.70;;;;;;;;;;2065395;28;20043;-54
2023/09/21 04:36:14;;;;;;;12.82;10.00;;;;;;;;;;2072925;28;20050;-53
2023/09/21 04:37:15;;;;;;;15.77;10.43;;;;;;;;;;2073319;28;20050;-53
2023/09/21 04:38:16;;;;;;;12.05;10.40;;;;;;;;;;2073848;28;20125;-53
2023/09/21 04:39:17;;;;;;;11.20;8.65;;;;;;;;;;2073515;28;20045;-52
2023/09/21 04:40:17;;;;;;;13.00;9.90;;;;;;;;;;2065451;28;20057;-53
2023/09/21 04:41:20;;;;;;;11.40;8.73;;;;;;;;;;2073226;28;20064;-53
2023/09/21 04:42:21;;;;;;;11.23;9.43;;;;;;;;;;2073471;28;20046;-54
2023/09/21 04:43:22;;;;;;;12.32;8.82;;;;;;;;;;2073909;28;20049;-54
2023/09/21 04:44:23;;;;;;;10.57;8.80;;;;;;;;;;2073707;28;20045;-53
2023/09/21 04:45:26;;;;;;;12.52;8.48;;;;;;;;;;2073548;28;20096;-53
2023/09/21 04:46:27;;;;;;;13.07;9.27;;;;;;;;;;2072965;28;20052;-54
2023/09/21 04:47:28;;;;;;;14.70;8.60;;;;;;;;;;2073182;28;20160;-53
2023/09/21 04:48:30;;;;;;;9.50;7.57;;;;;;;;;;2073746;28;20050;-53
2023/09/21 04:49:31;;;;;;;12.52;8.57;;;;;;;;;;2065571;28;20038;-53
2023/09/21 04:50:31;;;;;;;12.93;8.60;;;;;;;;;;2073622;28;20434;-53
2023/09/21 04:51:33;;;;;;;11.77;9.15;;;;;;;;;;2074070;28;20033;-53
2023/09/21 04:52:34;;;;;;;12.30;8.82;;;;;;;;;;2073490;28;20521;-53
2023/09/21 04:53:35;;;;;;;10.35;8.45;;;;;;;;;;2073684;28;20085;-53
2023/09/21 04:54:36;;;;;;;11.55;7.90;;;;;;;;;;2064726;28;20057;-53
2023/09/21 04:55:37;;;;;;;11.20;7.13;;;;;;;;;;2073620;28;20041;-53
2023/09/21 04:56:37;;;;;;;10.85;7.50;;;;;;;;;;2074948;28;20485;-53
2023/09/21 04:57:38;;;;;;;14.20;8.15;;;;;;;;;;2073759;28;20042;-52
2023/09/21 04:58:39;;;;;;;10.60;7.47;;;;;;;;;;2065562;28;20537;-55
2023/09/21 04:59:40;;;;;;;14.65;7.30;;;;;;;;;;2073244;28;20045;-53
2023/09/21 05:00:40;;;;;;;9.68;6.50;;;;;;;;;;2073147;28;20065;-53
2023/09/21 05:01:41;;;;;;;10.63;7.05;;;;;;;;;;2064754;28;20419;-53
2023/09/21 05:02:42;;;;;;;16.40;7.43;;;;;;;;;;2065567;28;20038;-53
2023/09/21 05:03:45;;;;;;;9.98;7.40;;;;;;;;;;2065051;28;20113;-53
2023/09/21 05:04:46;;;;;;;12.93;6.95;;;;;;;;;;2065328;28;20037;-53
2023/09/21 05:05:47;;;;;;;12.00;6.90;;;;;;;;;;2065326;28;20037;-53
2023/09/21 05:06:48;;;;;;;9.18;7.13;;;;;;;;;;2065314;28;20041;-53
2023/09/21 05:07:49;;;;;;;8.82;6.93;;;;;;;;;;2065217;28;20038;-53
2023/09/21 05:08:51;;;;;;;9.70;7.18;;;;;;;;;;2065640;28;20430;-52
2023/09/21 05:09:52;;;;;;;11.50;7.55;;;;;;;;;;2065151;28;20046;-52
2023/09/21 05:10:52;;;;;;;10.23;6.78;;;;;;;;;;2073121;28;20042;-52
2023/09/21 05:11:53;;;;;;;10.07;7.07;;;;;;;;;;2073971;28;20485;-52
2023/09/21 05:12:54;;;;;;;12.73;8.07;;;;;;;;;;2072436;28;20037;-52
2023/09/21 05:13:55;;;;;;;11.10;7.03;;;;;;;;;;2073226;28;20049;-53
2023/09/21 05:14:57;;;;;;;9.60;6.70;;;;;;;;;;2073616;28;20046;-52
2023/09/21 05:15:58;;;;;;;10.70;7.57;;;;;;;;;;2073880;28;20037;-53
2023/09/21 05:16:58;;;;;;;8.43;6.70;;;;;;;;;;2073936;28;20453;-52
2023/09/21 05:17:59;;;;;;;11.32;7.70;;;;;;;;;;2073361;28;20513;-52
2023/09/21 05:19:00;;;;;;;9.75;7.55;;;;;;;;;;2073942;28;20394;-53
2023/09/21 05:20:01;;;;;;;14.20;8.23;;;;;;;;;;2073633;28;20046;-52
2023/09/21 05:21:04;;;;;;;13.10;8.00;;;;;;;;;;2073847;28;20038;-53
2023/09/21 05:22:05;;;;;;;11.95;6.60;;;;;;;;;;2074224;28;20037;-53
2023/09/21 05:23:06;;;;;;;7.82;6.20;;;;;;;;;;2073916;28;20034;-53
2023/09/21 05:24:07;;;;;;;9.18;7.15;;;;;;;;;;2073824;28;20041;-54
2023/09/21 05:25:09;;;;;;;10.00;7.28;;;;;;;;;;2073874;28;20073;-54
2023/09/21 05:26:09;;;;;;;11.70;7.30;;;;;;;;;;2073843;28;20402;-54
2023/09/21 05:27:11;;;;;;;10.02;6.85;;;;;;;;;;2073975;28;20046;-53
2023/09/21 05:28:12;;;;;;;9.52;6.35;;;;;;;;;;2073857;28;20034;-54
2023/09/21 05:29:14;;;;;;;9.27;6.22;;;;;;;;;;2074006;28;20457;-54
2023/09/21 05:30:17;;;;;;;13.18;6.65;;;;;;;;;;2073856;28;20037;-54
2023/09/21 05:31:17;;;;;;;10.65;7.15;;;;;;;;;;2073892;28;20050;-54
2023/09/21 05:32:18;;;;;;;13.43;7.10;;;;;;;;;;2073828;28;20041;-53
2023/09/21 05:33:19;;;;;;;10.13;5.65;;;;;;;;;;2073827;28;20045;-55
2023/09/21 05:34:20;;;;;;;12.10;7.32;;;;;;;;;;2073906;28;20030;-53
2023/09/21 05:35:23;;;;;;;9.55;5.10;;;;;;;;;;2073547;28;20478;-54
2023/09/21 05:36:24;;;;;;;10.35;6.13;;;;;;;;;;2073827;28;20037;-54
2023/09/21 05:37:24;;;;;;;11.48;6.47;;;;;;;;;;2073733;28;20128;-54
2023/09/21 05:38:25;;;;;;;9.52;7.00;;;;;;;;;;2073799;28;20110;-53
2023/09/21 05:39:26;;;;;;;18.52;7.85;;;;;;;;;;2073752;28;20089;-53
2023/09/21 05:40:27;;;;;;;13.63;6.68;;;;;;;;;;2073970;28;20459;-54
2023/09/21 05:41:27;;;;;;;7.75;6.32;;;;;;;;;;2073671;28;20058;-53
2023/09/21 05:42:28;;;;;;;10.60;6.78;;;;;;;;;;2073810;28;20376;-54
2023/09/21 05:43:29;;;;;;;9.27;6.13;;;;;;;;;;2073759;28;20065;-53
2023/09/21 05:44:30;;;;;;;10.38;6.47;;;;;;;;;;2073284;28;20078;-53
2023/09/21 05:45:30;;;;;;;9.48;6.00;;;;;;;;;;2073894;28;20093;-53
2023/09/21 05:46:31;;;;;;;9.10;6.07;;;;;;;;;;2073862;28;20029;-53
2023/09/21 05:47:32;;;;;;;12.43;6.90;;;;;;;;;;2073823;28;20544;-53
2023/09/21 05:48:33;;;;;;;8.02;5.70;;;;;;;;;;2073698;28;20050;-53
2023/09/21 05:49:36;;;;;;;11.00;6.10;;;;;;;;;;2073299;28;20201;-53
2023/09/21 05:50:37;;;;;;;11.02;6.15;;;;;;;;;;2073123;28;20399;-53
2023/09/21 05:51:39;;;;;;;7.60;5.40;;;;;;;;;;2073984;28;20037;-53
2023/09/21 05:52:40;;;;;;;8.45;5.75;;;;;;;;;;2074016;28;20041;-53
2023/09/21 05:53:41;;;;;;;7.07;5.32;;;;;;;;;;2073732;28;20033;-53
2023/09/21 05:54:45;;;;;;;9.07;4.90;;;;;;;;;;2072740;28;20072;-53
2023/09/21 05:55:46;;;;;;;10.98;5.25;;;;;;;;;;2073117;28;20037;-53
2023/09/21 05:56:47;;;;;;;7.78;4.40;;;;;;;;;;2073583;28;20038;-52
2023/09/21 05:57:48;;;;;;;14.80;5.20;;;;;;;;;;2073199;28;20397;-54
2023/09/21 05:58:48;;;;;;;6.25;4.60;;;;;;;;;;2073396;28;20050;-53
2023/09/21 05:59:50;;;;;;;7.90;4.75;;;;;;;;;;2073977;28;20041;-53
2023/09/21 06:00:52;;;;;;;10.20;4.25;;;;;;;;;;2072997;28;20046;-53
2023/09/21 06:01:53;;;;;;;7.97;4.93;;;;;;;;;;2073826;28;20033;-53
2023/09/21 06:02:54;;;;;;;7.20;4.78;;;;;;;;;;2073936;28;20038;-53
2023/09/21 06:03:55;;;;;;;6.25;4.68;;;;;;;;;;2073653;28;20480;-53
2023/09/21 06:04:55;;;;;;;6.60;4.50;;;;;;;;;;2073812;28;20045;-53
2023/09/21 06:05:56;;;;;;;7.80;4.57;;;;;;;;;;2073826;28;20046;-53